Time;durP1;ratioP1;P1;durP2;ratioP2;P2;SDS_P1;SDS_P2;PMS_P1;PMS_P2;Temp;Humidity;BMP_temperature;BMP_pressure;BME280_temperature;BME280_humidity;BME280_pressure;Samples;Min_cycle;Max_cycle;Signal;HPM_P1;HPM_P2
2021/12/08 00:00:51;;;;;;;3.77;1.70;;;5.00;99.90;;;;;;5047968;28;20567;-59
2021/12/08 00:03:19;;;;;;;2.43;2.00;;;5.00;92.70;;;;;;5048035;28;20664;-60
2021/12/08 00:05:47;;;;;;;4.47;2.20;;;5.00;99.90;;;;;;5027730;28;20213;-59
2021/12/08 00:08:21;;;;;;;2.53;1.57;;;5.00;99.90;;;;;;5046923;28;20195;-59
2021/12/08 00:13:40;;;;;;;3.90;2.30;;;5.00;99.90;;;;;;5000275;28;20211;-59
2021/12/08 00:16:10;;;;;;;3.27;1.90;;;5.00;99.90;;;;;;5011985;28;20919;-59
2021/12/08 00:18:44;;;;;;;6.93;2.67;;;5.10;99.90;;;;;;5037859;28;20289;-59
2021/12/08 00:21:11;;;;;;;6.87;2.30;;;5.00;99.90;;;;;;5048457;28;20187;-59
2021/12/08 00:23:39;;;;;;;3.83;1.50;;;5.00;99.90;;;;;;5045040;28;20265;-59
2021/12/08 00:26:06;;;;;;;4.40;1.50;;;5.10;99.90;;;;;;5027025;28;20276;-59
2021/12/08 00:28:33;;;;;;;2.80;1.50;;;5.10;99.90;;;;;;5025297;28;20278;-59
2021/12/08 00:31:03;;;;;;;1.13;0.97;;;5.10;1.00;;;;;;5044948;28;20195;-59
2021/12/08 00:33:31;;;;;;;4.30;1.00;;;5.10;99.90;;;;;;5046669;28;20199;-59
2021/12/08 00:36:01;;;;;;;3.07;1.17;;;5.10;1.00;;;;;;5046106;28;20290;-59
2021/12/08 00:38:29;;;;;;;2.97;1.23;;;4.90;1.00;;;;;;5045516;28;20236;-59
2021/12/08 00:40:56;;;;;;;2.07;1.20;;;4.80;1.00;;;;;;5041339;28;20187;-59
2021/12/08 00:43:24;;;;;;;2.73;1.60;;;4.60;99.90;;;;;;5041920;28;20277;-58
2021/12/08 00:45:52;;;;;;;4.97;2.07;;;4.40;99.90;;;;;;5028767;28;20200;-58
2021/12/08 00:48:21;;;;;;;1.87;1.50;;;4.30;99.90;;;;;;5026055;28;20748;-58
2021/12/08 00:50:49;;;;;;;3.90;1.50;;;4.30;99.90;;;;;;5045713;28;20229;-58
2021/12/08 00:53:17;;;;;;;2.53;1.30;;;4.20;1.00;;;;;;5027421;28;20187;-58
2021/12/08 00:55:44;;;;;;;2.73;1.60;;;4.20;99.90;;;;;;5046950;28;20261;-58
2021/12/08 00:58:11;;;;;;;2.77;1.70;;;4.20;99.90;;;;;;5045045;28;20203;-58
2021/12/08 01:00:42;;;;;;;2.27;1.60;;;4.20;1.00;;;;;;5045161;28;20483;-58
2021/12/08 01:03:12;;;;;;;3.67;1.90;;;4.20;1.00;;;;;;5045487;28;20223;-58
2021/12/08 01:05:42;;;;;;;4.33;1.80;;;4.10;1.00;;;;;;5047328;28;20274;-58
2021/12/08 01:08:10;;;;;;;5.30;1.80;;;4.10;1.00;;;;;;5012773;28;20261;-58
2021/12/08 01:10:39;;;;;;;4.37;1.70;;;4.20;99.90;;;;;;5044635;28;20257;-59
2021/12/08 01:13:08;;;;;;;1.83;1.53;;;4.20;99.90;;;;;;5045070;28;20195;-58
2021/12/08 01:15:38;;;;;;;3.63;1.60;;;4.20;1.00;;;;;;5045433;28;20191;-59
2021/12/08 01:18:05;;;;;;;2.50;1.60;;;4.30;99.90;;;;;;5045438;28;20249;-58
2021/12/08 01:20:33;;;;;;;1.77;1.40;;;4.40;99.90;;;;;;5026940;28;20195;-58
2021/12/08 01:23:00;;;;;;;3.73;1.50;;;4.40;99.90;;;;;;5022270;28;20243;-58
2021/12/08 01:25:27;;;;;;;3.83;1.60;;;4.50;99.90;;;;;;5020207;28;20207;-58
2021/12/08 01:27:54;;;;;;;3.20;1.20;;;4.60;99.90;;;;;;5025131;28;20245;-58
2021/12/08 01:30:21;;;;;;;2.60;1.67;;;4.50;99.90;;;;;;5022022;28;20249;-58
2021/12/08 01:32:49;;;;;;;2.73;1.57;;;4.60;99.90;;;;;;5024386;28;20765;-58
2021/12/08 01:35:16;;;;;;;5.30;1.50;;;4.70;99.90;;;;;;5045399;28;20193;-58
2021/12/08 01:37:43;;;;;;;2.13;1.23;;;4.70;99.90;;;;;;5046449;28;20219;-59
2021/12/08 01:40:12;;;;;;;1.70;1.40;;;4.70;48.10;;;;;;5056309;28;20296;-58
2021/12/08 01:42:44;;;;;;;3.13;1.67;;;4.70;99.90;;;;;;5064038;28;20235;-58
2021/12/08 01:48:12;;;;;;;3.37;1.50;;;4.70;99.90;;;;;;5060887;28;20202;-58
2021/12/08 01:50:41;;;;;;;1.93;1.20;;;4.70;99.90;;;;;;5060650;28;20214;-58
2021/12/08 01:53:09;;;;;;;2.80;1.70;;;4.70;99.90;;;;;;5064271;28;20199;-58
2021/12/08 01:55:38;;;;;;;3.67;1.60;;;4.70;99.90;;;;;;5063810;28;20285;-58
2021/12/08 01:58:06;;;;;;;1.80;1.10;;;4.60;99.90;;;;;;5082904;28;20570;-58
2021/12/08 02:00:44;;;;;;;3.07;1.57;;;4.60;99.90;;;;;;5067137;28;21070;-58
2021/12/08 02:03:12;;;;;;;2.37;1.40;;;4.60;1.00;;;;;;5069153;28;20211;-58
2021/12/08 02:05:39;;;;;;;3.40;1.30;;;4.50;99.90;;;;;;5063945;28;20189;-59
2021/12/08 02:08:06;;;;;;;2.17;1.30;;;4.60;99.90;;;;;;5068300;28;20226;-59
2021/12/08 02:10:35;;;;;;;3.97;1.67;;;4.50;1.00;;;;;;5065877;28;20198;-59
2021/12/08 02:13:02;;;;;;;2.43;1.40;;;4.60;99.90;;;;;;5065294;28;20203;-59
2021/12/08 02:15:29;;;;;;;1.83;1.43;;;4.50;99.90;;;;;;5065511;28;20206;-58
2021/12/08 02:17:57;;;;;;;1.80;1.20;;;4.70;99.90;;;;;;5080726;28;20713;-58
2021/12/08 02:20:27;;;;;;;4.63;1.50;;;4.70;99.90;;;;;;5064404;28;20191;-58
2021/12/08 02:22:54;;;;;;;1.57;1.10;;;4.70;99.90;;;;;;5061731;28;20215;-59
2021/12/08 02:25:26;;;;;;;1.77;1.13;;;4.60;99.90;;;;;;5053498;28;20197;-59
2021/12/08 02:27:57;;;;;;;1.20;1.10;;;4.70;99.90;;;;;;5069291;28;21165;-58
2021/12/08 02:49:50;;;;;;;1.60;1.23;;;4.60;99.90;;;;;;5066316;28;20183;-58
2021/12/08 02:52:17;;;;;;;2.17;1.20;;;4.70;95.80;;;;;;5069267;28;20278;-58
2021/12/08 02:54:48;;;;;;;1.53;1.13;;;4.70;99.90;;;;;;5067765;28;20195;-59
2021/12/08 02:57:18;;;;;;;2.37;1.40;;;4.70;79.80;;;;;;5066900;28;20202;-59
2021/12/08 02:59:46;;;;;;;0.97;0.90;;;4.80;99.90;;;;;;5070423;28;20223;-58
2021/12/08 03:02:14;;;;;;;0.90;0.90;;;4.80;99.90;;;;;;5041621;28;20290;-58
2021/12/08 03:04:41;;;;;;;1.30;1.20;;;4.80;85.30;;;;;;5061835;28;20214;-58
2021/12/08 03:07:08;;;;;;;1.53;1.20;;;4.80;99.90;;;;;;5068321;28;20191;-58
2021/12/08 03:09:36;;;;;;;1.20;1.10;;;4.80;31.00;;;;;;5068046;28;20191;-58
2021/12/08 03:12:03;;;;;;;1.60;1.30;;;4.80;94.30;;;;;;5068579;28;20186;-59
2021/12/08 03:14:31;;;;;;;1.37;1.27;;;4.80;99.90;;;;;;5068355;28;20207;-58
2021/12/08 03:17:03;;;;;;;2.23;1.20;;;4.80;99.90;;;;;;5069942;28;20215;-58
2021/12/08 03:19:31;;;;;;;2.43;1.20;;;4.90;99.00;;;;;;5067839;28;20203;-58
2021/12/08 03:21:59;;;;;;;1.67;1.40;;;4.90;99.90;;;;;;5063960;28;20288;-59
2021/12/08 03:27:08;;;;;;;2.80;1.50;;;4.90;99.90;;;;;;5078484;28;20690;-59
2021/12/08 03:29:51;;;;;;;2.30;1.37;;;4.90;99.90;;;;;;5067435;28;20187;-58
2021/12/08 03:32:28;;;;;;;1.63;1.40;;;4.90;99.90;;;;;;5067461;28;20248;-58
2021/12/08 03:34:55;;;;;;;1.73;1.40;;;5.00;99.90;;;;;;5067644;28;20194;-58
2021/12/08 03:37:29;;;;;;;2.70;1.30;;;5.00;99.90;;;;;;5066942;28;20212;-58
2021/12/08 03:39:58;;;;;;;2.23;1.30;;;4.90;99.90;;;;;;5051556;28;20698;-58
2021/12/08 03:42:33;;;;;;;1.57;1.47;;;5.00;99.90;;;;;;5030307;28;20644;-58
2021/12/08 03:45:04;;;;;;;1.77;1.47;;;5.00;99.90;;;;;;5041956;28;20209;-58
2021/12/08 03:47:31;;;;;;;2.57;1.30;;;5.00;99.90;;;;;;5023925;28;20205;-58
2021/12/08 03:50:00;;;;;;;2.37;1.50;;;5.10;99.90;;;;;;5048349;28;20192;-59
2021/12/08 03:52:27;;;;;;;1.83;1.50;;;5.10;99.90;;;;;;5049255;28;20208;-59
2021/12/08 03:54:55;;;;;;;1.30;1.20;;;5.10;99.90;;;;;;5045876;28;20199;-58
2021/12/08 03:57:22;;;;;;;1.67;1.40;;;5.10;99.90;;;;;;5040390;28;21254;-59
2021/12/08 03:59:49;;;;;;;2.60;1.60;;;5.10;99.90;;;;;;5047954;28;20198;-59
2021/12/08 04:02:16;;;;;;;1.70;1.50;;;5.20;99.90;;;;;;5046021;28;20199;-58
2021/12/08 04:04:49;;;;;;;1.90;1.50;;;5.20;99.90;;;;;;5047247;28;20270;-59
2021/12/08 04:07:18;;;;;;;1.67;1.40;;;5.10;99.90;;;;;;5048965;28;20290;-58
2021/12/08 04:09:48;;;;;;;2.60;1.30;;;5.10;99.90;;;;;;5022769;28;20567;-58
2021/12/08 04:12:19;;;;;;;2.17;1.70;;;5.10;99.90;;;;;;5020793;28;20191;-59
2021/12/08 04:14:53;;;;;;;2.73;1.57;;;5.10;99.90;;;;;;5046239;28;20590;-59
2021/12/08 04:17:23;;;;;;;1.70;1.60;;;5.10;99.90;;;;;;5046981;28;20207;-59
2021/12/08 04:19:52;;;;;;;3.07;1.60;;;5.10;99.90;;;;;;5047639;28;20658;-60
2021/12/08 04:22:35;;;;;;;2.97;1.33;;;5.10;99.90;;;;;;5011775;28;20539;-59
2021/12/08 04:25:07;;;;;;;1.70;1.50;;;5.20;99.90;;;;;;5009676;28;20207;-58
2021/12/08 04:27:37;;;;;;;3.77;1.87;;;5.10;99.90;;;;;;5045359;28;20238;-58
2021/12/08 04:30:14;;;;;;;2.50;2.30;;;5.10;99.90;;;;;;5045706;28;20233;-59
2021/12/08 04:32:42;;;;;;;2.73;1.67;;;5.10;99.90;;;;;;5008603;28;20919;-59
2021/12/08 04:35:10;;;;;;;3.37;1.50;;;5.00;99.90;;;;;;5044722;28;20210;-59
2021/12/08 04:37:45;;;;;;;1.93;1.60;;;5.10;99.90;;;;;;5045675;28;20902;-59
2021/12/08 04:45:41;;;;;;;2.63;1.93;;;5.00;99.90;;;;;;5026504;28;20207;-59
2021/12/08 05:07:30;;;;;;;2.33;1.83;;;5.00;99.90;;;;;;5046173;28;20188;-60
2021/12/08 05:10:08;;;;;;;3.90;2.10;;;5.00;99.90;;;;;;5044677;28;20191;-60
2021/12/08 05:12:37;;;;;;;4.53;2.30;;;4.90;99.90;;;;;;5019573;28;20223;-60
2021/12/08 05:15:25;;;;;;;4.70;2.80;;;4.90;99.90;;;;;;5011722;28;20183;-60
2021/12/08 05:18:09;;;;;;;2.47;2.10;;;4.90;1.00;;;;;;5046181;28;20540;-60
2021/12/08 05:20:49;;;;;;;3.20;2.30;;;4.90;99.90;;;;;;5044882;28;20191;-60
2021/12/08 05:23:31;;;;;;;3.10;2.00;;;4.90;1.00;;;;;;5045973;28;20195;-60
2021/12/08 05:26:03;;;;;;;4.63;2.23;;;4.80;1.00;;;;;;5042303;28;20211;-60
2021/12/08 05:28:31;;;;;;;5.20;2.30;;;4.80;1.00;;;;;;5028786;28;20580;-60
2021/12/08 05:31:15;;;;;;;2.97;2.23;;;4.70;1.00;;;;;;5042662;28;20200;-60
2021/12/08 05:33:46;;;;;;;1.73;1.63;;;4.70;1.00;;;;;;5044267;28;20191;-59
2021/12/08 05:36:17;;;;;;;5.10;2.30;;;4.70;1.00;;;;;;5028883;28;20191;-59
2021/12/08 05:38:45;;;;;;;7.57;2.23;;;4.70;1.00;;;;;;5046725;28;20263;-59
2021/12/08 05:41:26;;;;;;;5.30;2.50;;;4.80;1.00;;;;;;5044700;28;20807;-59
2021/12/08 05:43:54;;;;;;;3.00;2.63;;;4.70;1.00;;;;;;5047181;28;20254;-59
2021/12/08 05:46:26;;;;;;;3.90;2.50;;;4.70;1.00;;;;;;5046281;28;20188;-59
2021/12/08 05:48:54;;;;;;;5.27;2.73;;;4.70;1.00;;;;;;5046516;28;20219;-59
2021/12/08 05:51:28;;;;;;;5.43;2.77;;;4.60;1.00;;;;;;5028874;28;20246;-59
2021/12/08 05:53:59;;;;;;;9.80;2.73;;;4.60;1.00;;;;;;5046321;28;20219;-59
2021/12/08 05:56:28;;;;;;;4.93;3.07;;;4.60;1.00;;;;;;5047074;28;20214;-59
2021/12/08 05:58:57;;;;;;;4.60;2.67;;;4.60;1.00;;;;;;5050083;28;20246;-59
2021/12/08 06:01:30;;;;;;;7.80;2.80;;;4.60;1.00;;;;;;5032821;28;20266;-59
2021/12/08 06:04:00;;;;;;;4.47;2.70;;;4.50;1.00;;;;;;5050260;28;20605;-59
2021/12/08 06:06:28;;;;;;;3.07;2.23;;;4.40;1.00;;;;;;5029392;28;20241;-60
2021/12/08 06:08:56;;;;;;;5.00;2.73;;;4.40;1.00;;;;;;5025255;28;20192;-59
2021/12/08 06:11:26;;;;;;;6.67;3.03;;;4.40;1.00;;;;;;5049255;28;20218;-59
2021/12/08 06:13:59;;;;;;;3.80;2.60;;;4.40;1.00;;;;;;5048461;28;20857;-59
2021/12/08 06:16:32;;;;;;;5.60;3.43;;;4.40;1.00;;;;;;5038884;28;20256;-59
2021/12/08 06:18:59;;;;;;;7.50;3.80;;;4.50;1.00;;;;;;5044786;28;20234;-60
2021/12/08 06:21:29;;;;;;;5.93;3.50;;;4.50;1.00;;;;;;5050927;28;20627;-58
2021/12/08 06:23:57;;;;;;;6.90;3.80;;;4.50;1.00;;;;;;5032206;28;20207;-58
2021/12/08 06:26:26;;;;;;;6.63;3.10;;;4.60;1.00;;;;;;5043280;28;20199;-58
2021/12/08 06:28:54;;;;;;;4.20;3.23;;;4.70;1.00;;;;;;5031353;28;20535;-58
2021/12/08 06:31:24;;;;;;;7.07;4.57;;;4.70;1.00;;;;;;5016244;28;20200;-59
2021/12/08 06:33:53;;;;;;;7.23;5.57;;;4.80;1.00;;;;;;5044882;28;20188;-60
2021/12/08 06:36:35;;;;;;;7.40;4.00;;;4.90;1.00;;;;;;5014581;28;20275;-58
2021/12/08 06:39:07;;;;;;;8.07;4.10;;;4.90;1.00;;;;;;5048378;28;20882;-60
2021/12/08 06:41:41;;;;;;;13.97;4.30;;;5.00;1.00;;;;;;5049749;28;20670;-60
2021/12/08 06:44:12;;;;;;;7.40;3.27;;;5.00;1.00;;;;;;5050876;28;20219;-60
2021/12/08 06:46:41;;;;;;;5.47;3.07;;;5.00;1.00;;;;;;5019519;28;20705;-60
2021/12/08 06:49:11;;;;;;;5.60;3.77;;;5.00;1.00;;;;;;5046962;28;20714;-59
2021/12/08 06:51:45;;;;;;;9.00;3.73;;;5.00;1.00;;;;;;5049867;28;20195;-59
2021/12/08 06:54:18;;;;;;;7.30;3.27;;;4.80;1.00;;;;;;5048593;28;20196;-59
2021/12/08 06:56:53;;;;;;;6.43;4.50;;;4.70;1.00;;;;;;5025963;28;20249;-59
2021/12/08 06:59:25;;;;;;;5.90;3.13;;;4.70;1.00;;;;;;5045572;28;20195;-59
2021/12/08 07:07:27;;;;;;;9.63;3.50;;;4.50;1.00;;;;;;5048307;28;20207;-60
2021/12/08 07:10:01;;;;;;;8.43;3.70;;;4.50;1.00;;;;;;5048132;28;20194;-60
2021/12/08 07:12:33;;;;;;;4.97;3.40;;;4.60;1.00;;;;;;5048609;28;20239;-60
2021/12/08 07:15:07;;;;;;;6.87;3.60;;;4.60;1.00;;;;;;5024873;28;20192;-60
2021/12/08 07:17:37;;;;;;;7.97;3.80;;;4.50;1.00;;;;;;5046890;28;20670;-59
2021/12/08 07:22:48;;;;;;;9.33;4.80;;;4.50;1.00;;;;;;5045925;28;20599;-58
2021/12/08 07:25:18;;;;;;;8.33;4.63;;;4.40;1.00;;;;;;5045614;28;20200;-58
2021/12/08 07:27:46;;;;;;;7.67;5.57;;;4.30;1.00;;;;;;5023569;28;20226;-58
2021/12/08 07:30:27;;;;;;;18.97;8.00;;;4.30;15.60;;;;;;5047257;28;20195;-58
2021/12/08 07:32:54;;;;;;;7.47;5.47;;;4.30;1.00;;;;;;5005076;28;20651;-57
2021/12/08 07:35:27;;;;;;;7.30;4.73;;;4.30;20.40;;;;;;5045693;28;20196;-59
2021/12/08 07:37:54;;;;;;;9.43;5.50;;;4.30;1.00;;;;;;5030114;28;20208;-58
2021/12/08 07:40:49;;;;;;;14.77;5.73;;;4.30;1.00;;;;;;5023161;28;20285;-59
2021/12/08 07:43:20;;;;;;;10.13;4.60;;;4.20;1.00;;;;;;5041671;28;20215;-59
2021/12/08 07:46:02;;;;;;;7.27;4.17;;;4.30;21.20;;;;;;5047690;28;20253;-58
2021/12/08 07:48:38;;;;;;;8.53;5.80;;;4.20;1.00;;;;;;5047501;28;20265;-60
2021/12/08 07:51:28;;;;;;;8.07;3.80;;;4.30;1.00;;;;;;5057546;28;20617;-59
2021/12/08 07:53:56;;;;;;;4.47;3.70;;;4.30;1.00;;;;;;5036974;28;20293;-61
2021/12/08 07:56:25;;;;;;;6.50;3.60;;;4.40;1.00;;;;;;5030785;28;20770;-60
2021/12/08 07:59:00;;;;;;;5.73;3.77;;;4.30;1.00;;;;;;5046373;28;20771;-59
2021/12/08 08:01:36;;;;;;;7.17;4.27;;;4.30;1.00;;;;;;5031242;28;20187;-59
2021/12/08 08:04:06;;;;;;;7.70;5.60;;;4.30;1.00;;;;;;5039622;28;20215;-59
2021/12/08 08:06:37;;;;;;;9.07;4.50;;;4.30;1.00;;;;;;5058410;28;20341;-60
2021/12/08 08:09:08;;;;;;;6.93;3.60;;;4.30;1.00;;;;;;5045930;28;20442;-59
2021/12/08 08:11:41;;;;;;;8.47;4.00;;;4.40;1.00;;;;;;5039641;28;20247;-59
2021/12/08 08:14:11;;;;;;;9.80;3.67;;;4.40;1.00;;;;;;5047057;28;20210;-59
2021/12/08 08:16:39;;;;;;;6.67;4.23;;;4.50;1.00;;;;;;5023526;28;20188;-59
2021/12/08 08:19:12;;;;;;;7.20;3.77;;;4.60;1.00;;;;;;5026153;28;20203;-59
2021/12/08 08:21:45;;;;;;;9.07;4.07;;;4.70;1.00;;;;;;5047077;28;20249;-59
2021/12/08 08:24:13;;;;;;;8.67;4.30;;;4.80;1.00;;;;;;5045365;28;20753;-59
2021/12/08 08:26:42;;;;;;;6.63;4.43;;;4.90;1.00;;;;;;5046404;28;20207;-59
2021/12/08 08:29:10;;;;;;;8.37;4.20;;;5.00;1.00;;;;;;5006955;28;20273;-59
2021/12/08 08:31:45;;;;;;;9.90;4.00;;;5.00;1.00;;;;;;5045472;28;20222;-59
2021/12/08 08:34:12;;;;;;;9.07;3.93;;;5.10;1.00;;;;;;5046984;28;20594;-59
2021/12/08 08:36:45;;;;;;;10.03;4.30;;;5.20;1.00;;;;;;5059472;28;20199;-59
2021/12/08 08:39:21;;;;;;;5.70;3.73;;;5.20;1.00;;;;;;5047191;28;20760;-59
2021/12/08 08:41:53;;;;;;;9.47;3.93;;;5.30;1.00;;;;;;5041261;28;20630;-59
2021/12/08 08:44:27;;;;;;;7.60;3.80;;;5.30;1.00;;;;;;5046013;28;20628;-59
2021/12/08 08:46:57;;;;;;;8.47;4.00;;;5.20;1.00;;;;;;5009971;28;20188;-60
2021/12/08 08:49:27;;;;;;;6.37;3.80;;;5.20;1.00;;;;;;5026533;28;20203;-59
2021/12/08 08:52:00;;;;;;;10.70;4.17;;;5.20;1.00;;;;;;5036841;28;20195;-60
2021/12/08 08:54:32;;;;;;;8.57;3.97;;;5.30;1.00;;;;;;5037901;28;20813;-60
2021/12/08 08:57:17;;;;;;;6.53;3.20;;;5.40;1.00;;;;;;5020843;28;20222;-58
2021/12/08 08:59:48;;;;;;;6.60;3.77;;;5.50;1.00;;;;;;5045070;28;20212;-60
2021/12/08 09:02:19;;;;;;;11.67;4.67;;;5.60;99.90;;;;;;5040306;28;20508;-59
2021/12/08 09:04:54;;;;;;;5.07;3.30;;;5.60;99.90;;;;;;5044058;28;20222;-59
2021/12/08 09:07:26;;;;;;;7.83;4.10;;;5.70;99.90;;;;;;5040776;28;20180;-58
2021/12/08 09:09:55;;;;;;;5.53;3.13;;;5.70;99.90;;;;;;5043351;28;20272;-58
2021/12/08 09:12:28;;;;;;;10.40;3.47;;;5.60;99.90;;;;;;5021222;28;21193;-58
2021/12/08 09:15:12;;;;;;;4.57;3.50;;;5.70;99.90;;;;;;5044109;28;20245;-58
2021/12/08 09:17:43;;;;;;;6.73;3.50;;;6.00;99.90;;;;;;5018508;28;20227;-58
2021/12/08 09:20:56;;;;;;;8.80;3.37;;;6.60;1.00;;;;;;5023786;28;20210;-57
2021/12/08 09:23:39;;;;;;;7.40;3.67;;;7.40;1.00;;;;;;5014835;28;20523;-58
2021/12/08 09:26:12;;;;;;;7.20;3.17;;;7.80;1.00;;;;;;5044151;28;20200;-58
2021/12/08 09:28:47;;;;;;;5.70;3.13;;;8.40;99.90;;;;;;5044099;28;20223;-57
2021/12/08 09:31:38;;;;;;;5.27;3.07;;;8.20;99.90;;;;;;5027096;28;20406;-57
2021/12/08 09:34:20;;;;;;;6.93;3.20;;;7.30;1.00;;;;;;5026650;28;20200;-57
2021/12/08 09:36:56;;;;;;;5.07;3.03;;;6.50;1.00;;;;;;5020145;28;20199;-58
2021/12/08 09:39:37;;;;;;;9.30;3.30;;;6.50;1.00;;;;;;5062586;28;20265;-57
2021/12/08 09:42:14;;;;;;;9.77;3.30;;;6.50;1.00;;;;;;5063107;28;20195;-58
2021/12/08 09:44:48;;;;;;;8.70;3.70;;;6.70;1.00;;;;;;5058369;28;20218;-57
2021/12/08 09:47:16;;;;;;;7.03;2.93;;;6.70;1.00;;;;;;5061852;28;20616;-57
2021/12/08 09:49:47;;;;;;;7.43;3.73;;;6.40;13.20;;;;;;5057055;28;20194;-57
2021/12/08 09:52:17;;;;;;;8.23;4.10;;;6.60;1.00;;;;;;5062480;28;20198;-58
2021/12/08 09:54:44;;;;;;;8.97;3.23;;;6.90;1.00;;;;;;5059019;28;20190;-57
2021/12/08 09:57:15;;;;;;;9.27;3.83;;;7.30;1.00;;;;;;5064330;28;20265;-57
2021/12/08 09:59:47;;;;;;;5.13;2.33;;;7.70;1.00;;;;;;5060538;28;20199;-57
2021/12/08 10:02:27;;;;;;;5.13;2.70;;;8.50;99.90;;;;;;5061470;28;21096;-57
2021/12/08 10:05:10;;;;;;;7.47;2.50;;;8.90;99.90;;;;;;5066032;28;20218;-57
2021/12/08 10:07:38;;;;;;;6.07;2.90;;;9.80;1.00;;;;;;5059628;28;20193;-58
2021/12/08 10:10:08;;;;;;;7.70;2.90;;;9.30;1.00;;;;;;5065051;28;20201;-58
2021/12/08 10:12:37;;;;;;;8.63;2.57;;;9.20;99.90;;;;;;5066381;28;20183;-59
2021/12/08 10:15:07;;;;;;;3.87;2.20;;;8.80;99.90;;;;;;5065901;28;20226;-58
2021/12/08 10:17:34;;;;;;;8.87;2.90;;;8.30;99.90;;;;;;5065658;28;20187;-57
2021/12/08 10:20:12;;;;;;;6.90;2.80;;;7.80;1.00;;;;;;5079118;28;20206;-57
2021/12/08 10:22:42;;;;;;;8.83;3.10;;;7.40;1.00;;;;;;5079985;28;20199;-57
2021/12/08 10:25:14;;;;;;;4.87;2.77;;;7.20;1.00;;;;;;5062563;28;20942;-57
2021/12/08 10:28:09;;;;;;;7.53;2.60;;;7.20;1.00;;;;;;5063422;28;20229;-57
2021/12/08 10:30:53;;;;;;;8.60;2.57;;;7.10;1.00;;;;;;5064221;28;20183;-59
2021/12/08 10:36:49;;;;;;;10.37;2.77;;;7.30;1.00;;;;;;5064378;28;20546;-57
2021/12/08 10:39:24;;;;;;;5.83;2.60;;;7.40;1.00;;;;;;5063172;28;20238;-57
2021/12/08 10:42:06;;;;;;;7.93;4.20;;;7.30;1.00;;;;;;5065570;28;20194;-57
2021/12/08 10:45:13;;;;;;;6.40;3.53;;;7.30;1.00;;;;;;5067373;28;20270;-57
2021/12/08 10:47:41;;;;;;;8.67;3.63;;;7.20;1.00;;;;;;5069567;28;20197;-58
2021/12/08 10:56:06;;;;;;;4.93;2.17;;;6.90;1.00;;;;;;5067734;28;20195;-59
2021/12/08 10:58:36;;;;;;;6.77;3.67;;;6.90;1.00;;;;;;5065778;28;20280;-59
2021/12/08 11:01:19;;;;;;;13.17;5.53;;;7.00;1.00;;;;;;5063843;28;20207;-59
2021/12/08 11:03:48;;;;;;;5.53;2.30;;;7.00;1.00;;;;;;5067256;28;20223;-57
2021/12/08 11:06:18;;;;;;;7.87;2.87;;;7.00;1.00;;;;;;5069279;28;20555;-58
2021/12/08 11:08:51;;;;;;;6.90;2.93;;;7.10;1.00;;;;;;5069493;28;20811;-58
2021/12/08 11:11:41;;;;;;;9.07;2.63;;;7.10;1.00;;;;;;5065692;28;21233;-58
2021/12/08 11:14:08;;;;;;;6.50;2.60;;;7.30;1.00;;;;;;5064295;28;20350;-58
2021/12/08 11:16:37;;;;;;;8.07;2.60;;;7.40;1.00;;;;;;5061019;28;20607;-59
2021/12/08 11:19:10;;;;;;;3.23;2.33;;;7.70;1.00;;;;;;5060060;28;20290;-58
2021/12/08 11:21:47;;;;;;;5.20;2.20;;;7.60;1.00;;;;;;5066388;28;20197;-57
2021/12/08 11:24:20;;;;;;;8.77;3.30;;;7.40;1.00;;;;;;5067473;28;20198;-58
2021/12/08 11:26:50;;;;;;;7.27;3.23;;;7.30;1.00;;;;;;5066105;28;20280;-59
2021/12/08 11:29:17;;;;;;;7.30;3.60;;;7.20;1.00;;;;;;5064931;28;20217;-58
2021/12/08 11:31:48;;;;;;;4.50;2.47;;;7.20;1.00;;;;;;5066432;28;20202;-58
2021/12/08 11:34:20;;;;;;;6.63;2.33;;;7.20;1.00;;;;;;5064395;28;20194;-58
2021/12/08 11:37:08;;;;;;;9.07;3.37;;;7.20;1.00;;;;;;5067340;28;20244;-58
2021/12/08 11:39:41;;;;;;;10.53;2.43;;;7.20;1.00;;;;;;5081373;28;20223;-58
2021/12/08 11:42:16;;;;;;;4.33;2.47;;;7.10;1.00;;;;;;5066762;28;20194;-58
2021/12/08 11:44:52;;;;;;;10.27;2.57;;;7.00;1.00;;;;;;5066660;28;20191;-59
2021/12/08 11:47:23;;;;;;;6.93;2.57;;;7.00;1.00;;;;;;5065822;28;20194;-59
2021/12/08 11:49:53;;;;;;;6.57;2.37;;;7.00;1.00;;;;;;5066147;28;20213;-59
2021/12/08 11:52:23;;;;;;;5.13;2.43;;;7.00;1.00;;;;;;5066565;28;20628;-58
2021/12/08 11:54:51;;;;;;;10.17;2.10;;;6.90;1.00;;;;;;5064947;28;20189;-60
2021/12/08 11:57:25;;;;;;;4.07;2.00;;;7.00;1.00;;;;;;5082952;28;20264;-58
2021/12/08 12:00:00;;;;;;;7.50;2.50;;;7.00;1.00;;;;;;5050487;28;20210;-59
2021/12/08 12:02:35;;;;;;;14.40;2.73;;;7.00;1.00;;;;;;5066684;28;20543;-59
2021/12/08 12:05:10;;;;;;;8.97;2.53;;;7.00;1.00;;;;;;5066595;28;20214;-58
2021/12/08 12:07:39;;;;;;;5.77;2.27;;;7.10;1.00;;;;;;5047473;28;20756;-59
2021/12/08 12:10:10;;;;;;;5.60;2.40;;;7.00;1.00;;;;;;5058631;28;20950;-60
2021/12/08 12:12:39;;;;;;;7.77;2.40;;;7.00;1.00;;;;;;5064427;28;20191;-58
2021/12/08 12:15:09;;;;;;;9.73;2.63;;;7.00;1.00;;;;;;5065830;28;20187;-59
2021/12/08 12:17:36;;;;;;;9.60;2.77;;;7.00;1.00;;;;;;5064446;28;20550;-58
2021/12/08 12:20:13;;;;;;;4.27;2.20;;;7.10;1.00;;;;;;5060187;28;20203;-58
2021/12/08 12:23:21;;;;;;;7.70;2.43;;;7.10;1.00;;;;;;5058536;28;20191;-58
2021/12/08 12:25:54;;;;;;;7.53;2.70;;;7.20;1.00;;;;;;5064086;28;20709;-58
2021/12/08 12:28:42;;;;;;;6.30;2.20;;;7.20;1.00;;;;;;5066092;28;20187;-58
2021/12/08 12:31:47;;;;;;;7.43;2.70;;;7.20;1.00;;;;;;5066396;28;20241;-58
2021/12/08 12:34:29;;;;;;;8.57;2.40;;;7.30;1.00;;;;;;5067246;28;20194;-57
2021/12/08 12:36:57;;;;;;;5.57;2.43;;;7.30;1.00;;;;;;5067405;28;20936;-58
2021/12/08 12:39:27;;;;;;;7.57;2.30;;;7.40;1.00;;;;;;5075062;28;20234;-57
2021/12/08 12:42:15;;;;;;;5.47;2.47;;;7.50;99.90;;;;;;5067724;28;20195;-59
2021/12/08 12:44:45;;;;;;;10.60;2.60;;;7.30;99.90;;;;;;5070617;28;20762;-58
2021/12/08 12:47:22;;;;;;;6.77;2.30;;;7.30;1.00;;;;;;5069850;28;20215;-58
2021/12/08 12:50:19;;;;;;;6.73;2.37;;;7.30;99.90;;;;;;5065322;28;20263;-58
2021/12/08 12:52:50;;;;;;;5.33;2.40;;;7.30;1.00;;;;;;5067238;28;20205;-58
2021/12/08 12:55:29;;;;;;;9.57;2.70;;;7.30;1.00;;;;;;5065511;28;20268;-57
2021/12/08 12:58:05;;;;;;;9.27;2.03;;;7.40;1.00;;;;;;5064222;28;20264;-57
2021/12/08 13:00:42;;;;;;;8.50;2.30;;;7.40;99.90;;;;;;5066277;28;20252;-57
2021/12/08 13:03:34;;;;;;;4.60;2.17;;;7.60;1.00;;;;;;5066792;28;20221;-57
2021/12/08 13:06:03;;;;;;;11.07;2.77;;;7.70;99.90;;;;;;5062466;28;20230;-57
2021/12/08 13:08:37;;;;;;;7.63;2.40;;;7.70;99.90;;;;;;5055380;28;21175;-57
2021/12/08 13:11:24;;;;;;;8.53;2.30;;;7.80;99.90;;;;;;5064934;28;20202;-57
2021/12/08 13:13:54;;;;;;;8.87;2.37;;;7.80;99.90;;;;;;5055428;28;20238;-58
2021/12/08 13:16:27;;;;;;;3.77;2.03;;;7.80;99.90;;;;;;5061881;28;21441;-57
2021/12/08 13:19:06;;;;;;;5.67;2.03;;;7.60;99.90;;;;;;5051147;28;20280;-57
2021/12/08 13:21:40;;;;;;;5.73;2.50;;;7.60;99.90;;;;;;5064681;28;20194;-58
2021/12/08 13:24:40;;;;;;;9.07;2.00;;;7.60;99.90;;;;;;5060433;28;20259;-57
2021/12/08 13:27:09;;;;;;;6.90;2.07;;;7.50;99.90;;;;;;5065451;28;20582;-58
2021/12/08 13:29:41;;;;;;;8.27;2.57;;;7.40;99.90;;;;;;5064112;28;20248;-59
2021/12/08 13:32:11;;;;;;;6.57;2.50;;;7.40;99.90;;;;;;5063547;28;20659;-57
2021/12/08 13:34:41;;;;;;;6.30;2.07;;;7.30;99.90;;;;;;5066189;28;20195;-57
2021/12/08 13:37:29;;;;;;;7.20;2.33;;;7.20;99.90;;;;;;5046846;28;20207;-57
2021/12/08 13:40:04;;;;;;;7.57;2.87;;;7.10;99.90;;;;;;5041351;28;20605;-57
2021/12/08 13:42:54;;;;;;;7.07;2.27;;;7.00;99.90;;;;;;5056167;28;20206;-57
2021/12/08 13:45:21;;;;;;;8.30;2.03;;;7.00;1.00;;;;;;5068950;28;20940;-57
2021/12/08 13:47:49;;;;;;;7.10;3.40;;;7.00;1.00;;;;;;5064106;28;20652;-57
2021/12/08 13:50:16;;;;;;;6.73;3.63;;;6.90;1.00;;;;;;5069393;28;20247;-57
2021/12/08 13:53:00;;;;;;;9.23;4.17;;;6.80;1.00;;;;;;5055222;28;20199;-57
2021/12/08 13:55:28;;;;;;;9.57;5.43;;;6.80;1.00;;;;;;5054154;28;20197;-58
2021/12/08 13:58:12;;;;;;;10.73;5.37;;;6.80;1.00;;;;;;5057017;28;20594;-57
2021/12/08 14:00:43;;;;;;;11.10;3.93;;;6.80;1.00;;;;;;5067537;28;20190;-57
2021/12/08 14:03:33;;;;;;;14.73;6.00;;;6.70;1.00;;;;;;5067092;28;20290;-57
2021/12/08 14:06:02;;;;;;;12.77;6.67;;;6.70;1.00;;;;;;5064108;28;20210;-57
2021/12/08 14:08:39;;;;;;;12.40;5.30;;;6.60;1.00;;;;;;5053765;28;20191;-57
2021/12/08 14:11:13;;;;;;;11.37;4.27;;;6.60;1.00;;;;;;5050742;28;20674;-57
2021/12/08 14:13:45;;;;;;;7.50;3.40;;;6.60;1.00;;;;;;5038725;28;20577;-57
2021/12/08 14:16:15;;;;;;;8.60;2.83;;;6.60;1.00;;;;;;5062807;28;20195;-56
2021/12/08 14:18:55;;;;;;;6.43;2.70;;;6.60;1.00;;;;;;5061001;28;20223;-57
2021/12/08 14:21:41;;;;;;;6.60;2.77;;;6.60;1.00;;;;;;5070732;28;20206;-56
2021/12/08 14:24:26;;;;;;;7.33;2.23;;;6.60;1.00;;;;;;5076663;28;20192;-57
2021/12/08 14:26:55;;;;;;;13.67;2.83;;;6.60;1.00;;;;;;5073645;28;20218;-56
2021/12/08 14:29:23;;;;;;;6.03;2.80;;;6.60;1.00;;;;;;5044977;28;20203;-57
2021/12/08 14:31:56;;;;;;;5.60;3.27;;;6.60;1.00;;;;;;5073268;28;20246;-56
2021/12/08 14:34:34;;;;;;;6.07;2.53;;;6.60;1.00;;;;;;5065591;28;20183;-56
2021/12/08 14:37:15;;;;;;;11.73;3.20;;;6.60;1.00;;;;;;5067852;28;20190;-57
2021/12/08 14:39:49;;;;;;;6.27;2.20;;;6.60;1.00;;;;;;5043772;28;20232;-57
2021/12/08 14:42:17;;;;;;;8.37;2.90;;;6.50;1.00;;;;;;5048610;28;20203;-56